Time;durP1;ratioP1;P1;durP2;ratioP2;P2;SDS_P1;SDS_P2;PMS_P1;PMS_P2;Temp;Humidity;BMP_temperature;BMP_pressure;BME280_temperature;BME280_humidity;BME280_pressure;Samples;Min_cycle;Max_cycle;Signal;HPM_P1;HPM_P2
2022/01/30 00:02:10;;;;;;;11.00;5.57;;;;;;;-3.00;100.00;96278.38;5130305;27;20600;-60
2022/01/30 00:04:38;;;;;;;10.70;4.47;;;;;;;-2.93;100.00;96278.09;5130709;27;20054;-60
2022/01/30 00:07:07;;;;;;;8.27;4.03;;;;;;;-2.92;100.00;96253.22;5130036;27;20038;-60
2022/01/30 00:09:35;;;;;;;5.53;3.53;;;;;;;-2.83;100.00;96263.13;5130585;27;20046;-60
2022/01/30 00:12:05;;;;;;;8.73;5.23;;;;;;;-2.78;100.00;96261.19;5130599;27;20035;-60
2022/01/30 00:14:35;;;;;;;7.87;4.83;;;;;;;-2.72;100.00;96241.22;5130179;28;20072;-60
2022/01/30 00:17:08;;;;;;;9.37;3.63;;;;;;;-2.70;100.00;96244.53;5130365;28;20502;-60
2022/01/30 00:19:40;;;;;;;20.60;6.05;;;;;;;-2.64;100.00;96239.16;5130896;28;20295;-60
2022/01/30 00:22:17;;;;;;;6.97;4.00;;;;;;;-2.61;100.00;96238.19;5130331;28;20051;-60
2022/01/30 00:24:52;;;;;;;3.97;3.27;;;;;;;-2.57;100.00;96235.44;5130366;28;20039;-60
2022/01/30 00:27:26;;;;;;;9.07;4.63;;;;;;;-2.57;100.00;96216.56;5130045;28;20039;-60
2022/01/30 00:29:54;;;;;;;9.03;5.07;;;;;;;-2.53;100.00;96216.38;5130257;28;20074;-60
2022/01/30 00:32:21;;;;;;;6.97;4.60;;;;;;;-2.48;100.00;96188.69;5130050;28;20122;-60
2022/01/30 00:34:48;;;;;;;7.23;3.77;;;;;;;-2.45;100.00;96192.88;5130265;28;20092;-60
2022/01/30 00:37:16;;;;;;;10.30;4.20;;;;;;;-2.48;100.00;96168.09;5130191;28;20035;-60
2022/01/30 00:39:43;;;;;;;9.60;4.57;;;;;;;-2.42;100.00;96173.00;5112487;28;20108;-60
2022/01/30 00:42:11;;;;;;;9.50;4.33;;;;;;;-2.45;100.00;96162.84;5129605;28;20043;-60
2022/01/30 00:44:38;;;;;;;9.23;4.93;;;;;;;-2.42;100.00;96156.72;5130079;28;20055;-60
2022/01/30 00:47:08;;;;;;;10.17;5.17;;;;;;;-2.40;100.00;96149.78;5129941;28;20053;-60
2022/01/30 00:49:35;;;;;;;14.47;3.60;;;;;;;-2.39;100.00;96146.28;5111977;28;20100;-61
2022/01/30 00:52:02;;;;;;;21.93;5.27;;;;;;;-2.36;100.00;96123.00;5111964;28;20096;-60
2022/01/30 00:54:29;;;;;;;8.03;4.00;;;;;;;-2.34;100.00;96121.16;5129756;28;20546;-60
2022/01/30 00:56:56;;;;;;;7.70;4.07;;;;;;;-2.31;100.00;96127.03;5130105;28;20031;-60
2022/01/30 00:59:25;;;;;;;6.00;3.70;;;;;;;-2.28;100.00;96133.78;5129912;28;20118;-59
2022/01/30 01:01:52;;;;;;;9.87;4.47;;;;;;;-2.26;100.00;96119.13;5113298;28;20046;-60
2022/01/30 01:04:19;;;;;;;8.87;4.40;;;;;;;-2.23;100.00;96103.50;5130012;28;20513;-60
2022/01/30 01:06:49;;;;;;;6.17;3.33;;;;;;;-2.20;100.00;96100.78;5129832;28;20407;-59
2022/01/30 01:09:21;;;;;;;6.20;3.00;;;;;;;-2.17;100.00;96104.97;5130077;28;20051;-60
2022/01/30 01:12:28;;;;;;;10.70;3.67;;;;;;;-2.15;100.00;96093.72;5111540;28;20534;-60
2022/01/30 01:23:27;;;;;;;9.20;2.77;;;;;;;-1.96;100.00;96084.25;5131553;27;20058;-59
2022/01/30 01:25:54;;;;;;;;;;;;;;;-1.90;100.00;96081.34;5115661;27;20066;-60
2022/01/30 01:28:21;;;;;;;4.90;3.27;;;;;;;-1.84;100.00;96070.78;5133316;27;19925;-60
2022/01/30 01:30:50;;;;;;;4.73;2.63;;;;;;;-1.82;100.00;96076.72;5133711;27;20429;-60
2022/01/30 01:33:17;;;;;;;6.77;2.37;;;;;;;-1.74;100.00;96058.28;5134807;27;20039;-60
2022/01/30 01:35:44;;;;;;;4.57;1.90;;;;;;;-1.67;100.00;96063.09;5135059;27;20059;-60
2022/01/30 01:38:13;;;;;;;3.80;2.23;;;;;;;-1.59;100.00;96036.94;5133913;27;20035;-60
2022/01/30 01:40:40;;;;;;;4.13;1.90;;;;;;;-1.52;100.00;96033.16;5133131;27;20044;-60
2022/01/30 01:43:08;;;;;;;3.70;2.30;;;;;;;-1.48;100.00;96021.78;5134575;27;20110;-59
2022/01/30 01:45:38;;;;;;;1.20;1.10;;;;;;;-1.43;100.00;96019.81;5114626;27;20422;-61
2022/01/30 01:48:11;;;;;;;2.80;1.63;;;;;;;-1.41;100.00;96007.69;5133064;27;20076;-60
2022/01/30 01:50:39;;;;;;;2.90;1.10;;;;;;;-1.37;100.00;95999.72;5132892;27;20072;-61
2022/01/30 01:53:12;;;;;;;4.17;1.67;;;;;;;-1.37;100.00;95996.31;5114590;27;20042;-61
2022/01/30 01:55:41;;;;;;;1.53;1.10;;;;;;;-1.37;100.00;95986.00;5132928;27;20511;-63
2022/01/30 01:58:14;;;;;;;4.20;1.30;;;;;;;-1.36;100.00;95965.28;5114624;27;20480;-64
2022/01/30 02:01:01;;;;;;;4.63;1.60;;;;;;;-1.35;100.00;95961.78;5114283;27;20096;-63
2022/01/30 02:03:30;;;;;;;2.03;0.87;;;;;;;-1.32;100.00;95950.47;5114477;27;20043;-63
2022/01/30 02:06:01;;;;;;;2.17;1.10;;;;;;;-1.33;100.00;95951.41;5132365;27;20088;-63
2022/01/30 02:08:35;;;;;;;4.83;1.23;;;;;;;-1.32;100.00;95941.00;5114608;27;20042;-62
2022/01/30 02:11:06;;;;;;;2.50;1.00;;;;;;;-1.31;100.00;95926.38;5114497;27;20043;-62
2022/01/30 02:24:58;;;;;;;2.93;1.83;;;;;;;-1.25;100.00;95902.84;5114612;27;20553;-63
2022/01/30 02:27:31;;;;;;;2.57;0.97;;;;;;;-1.23;100.00;95896.72;5115987;27;20076;-64
2022/01/30 02:29:59;;;;;;;4.68;1.10;;;;;;;-1.19;100.00;95880.16;5132528;27;20129;-63
2022/01/30 02:32:27;;;;;;;1.10;1.00;;;;;;;-1.23;100.00;95876.06;5114525;27;20051;-64
2022/01/30 02:34:54;;;;;;;4.97;1.63;;;;;;;-1.19;100.00;95866.41;5114442;27;20043;-63
2022/01/30 02:37:21;;;;;;;5.00;1.20;;;;;;;-1.17;100.00;95855.09;5114457;27;20421;-64
2022/01/30 02:39:50;;;;;;;2.83;1.23;;;;;;;-1.10;100.00;95856.44;5114331;27;20407;-63
2022/01/30 02:42:23;;;;;;;0.60;0.50;;;;;;;-1.06;100.00;95837.31;5114472;27;20092;-63
2022/01/30 02:44:53;;;;;;;2.55;1.67;;;;;;;-1.04;100.00;95825.16;5114641;27;20054;-64
2022/01/30 02:47:27;;;;;;;3.87;1.27;;;;;;;-0.99;100.00;95843.81;5114291;27;20039;-64
2022/01/30 02:50:14;;;;;;;5.20;1.40;;;;;;;-0.95;100.00;95816.09;5114056;27;20079;-63
2022/01/30 02:52:43;;;;;;;3.93;1.47;;;;;;;-0.90;100.00;95814.94;5114223;27;20046;-64
2022/01/30 02:55:14;;;;;;;0.80;0.80;;;;;;;-0.87;100.00;95809.59;5114237;27;20039;-63
2022/01/30 02:57:41;;;;;;;3.90;1.00;;;;;;;-0.87;100.00;95804.44;5114246;27;20368;-64
2022/01/30 03:00:10;;;;;;;3.60;1.17;;;;;;;-0.82;100.00;95819.66;5113988;27;20748;-63
2022/01/30 03:02:37;;;;;;;1.03;0.70;;;;;;;-0.88;100.00;95805.34;5114019;27;20047;-64
2022/01/30 03:05:05;;;;;;;3.77;1.10;;;;;;;-0.91;100.00;95810.66;5113927;27;20051;-63
2022/01/30 03:07:32;;;;;;;3.63;0.83;;;;;;;-0.86;100.00;95802.69;5114127;27;20039;-63
2022/01/30 03:10:01;;;;;;;3.47;1.40;;;;;;;-0.84;100.00;95806.84;5114181;27;20116;-61
2022/01/30 03:12:30;;;;;;;5.93;1.53;;;;;;;-0.81;100.00;95795.50;5132302;27;20039;-63
2022/01/30 03:14:57;;;;;;;4.90;1.23;;;;;;;-0.83;100.00;95807.69;5113962;27;20130;-63
2022/01/30 03:17:24;;;;;;;2.57;0.80;;;;;;;-0.81;100.00;95811.00;5114922;27;20041;-63
2022/01/30 03:19:51;;;;;;;7.47;1.60;;;;;;;-0.84;100.00;95801.69;5131934;27;20039;-64
2022/01/30 03:22:19;;;;;;;2.83;1.20;;;;;;;-0.85;100.00;95788.84;5111676;27;20058;-63
2022/01/30 03:24:46;;;;;;;2.97;1.73;;;;;;;-0.89;100.00;95795.94;5113039;27;20065;-63
2022/01/30 03:27:29;;;;;;;7.97;1.07;;;;;;;-0.88;100.00;95782.13;5133237;27;20043;-63
2022/01/30 03:30:06;;;;;;;7.53;1.57;;;;;;;-0.89;100.00;95777.88;5114868;27;20047;-63
2022/01/30 03:32:59;;;;;;;6.07;1.17;;;;;;;-0.91;100.00;95774.53;5131774;27;20452;-64
2022/01/30 03:35:26;;;;;;;6.27;1.70;;;;;;;-0.90;100.00;95773.66;5113309;27;20043;-63
2022/01/30 03:37:53;;;;;;;6.50;1.40;;;;;;;-0.85;100.00;95781.97;5113435;27;20039;-63
2022/01/30 03:40:21;;;;;;;3.37;1.20;;;;;;;-0.84;100.00;95777.63;5112743;28;20091;-63
2022/01/30 03:42:49;;;;;;;3.97;0.60;;;;;;;-0.84;100.00;95777.63;5114365;27;20031;-63
2022/01/30 03:45:18;;;;;;;2.40;0.83;;;;;;;-0.81;100.00;95775.72;5113963;27;20088;-63
2022/01/30 03:47:45;;;;;;;5.23;0.80;;;;;;;-0.86;100.00;95775.16;5113127;27;20031;-63
2022/01/30 03:50:18;;;;;;;5.05;2.50;;;;;;;-0.85;100.00;95768.22;5109749;28;20066;-61
2022/01/30 03:52:47;;;;;;;8.20;2.13;;;;;;;-0.80;100.00;95759.28;5088544;28;20040;-62
2022/01/30 03:55:16;;;;;;;3.87;1.00;;;;;;;-0.76;100.00;95768.53;5089441;28;20425;-62
2022/01/30 03:57:43;;;;;;;3.20;0.63;;;;;;;-0.70;100.00;95770.78;5090468;28;20496;-63
2022/01/30 04:00:11;;;;;;;6.23;0.87;;;;;;;-0.67;100.00;95757.72;5072998;28;20119;-62
2022/01/30 04:02:47;;;;;;;7.53;1.57;;;;;;;-0.64;100.00;95754.13;5090405;28;20078;-61
2022/01/30 04:05:15;;;;;;;3.40;0.90;;;;;;;-0.61;100.00;95754.75;5089268;28;20048;-62
2022/01/30 04:07:47;;;;;;;1.43;0.60;;;;;;;-0.57;100.00;95761.41;5089069;28;20050;-62
2022/01/30 04:10:35;;;;;;;1.23;0.73;;;;;;;-0.54;100.00;95744.94;5089145;28;20126;-62
2022/01/30 04:13:15;;;;;;;1.43;0.93;;;;;;;-0.53;100.00;95734.53;5090371;28;20032;-63
2022/01/30 04:15:52;;;;;;;1.90;0.70;;;;;;;-0.45;100.00;95734.91;5089188;28;20440;-63
2022/01/30 04:18:50;;;;;;;1.73;0.53;;;;;;;-0.38;100.00;95745.72;5076010;28;20059;-62
2022/01/30 04:21:26;;;;;;;2.03;0.40;;;;;;;-0.34;100.00;95742.03;5089787;28;20098;-63
2022/01/30 04:24:23;;;;;;;0.57;0.27;;;;;;;-0.31;100.00;95727.22;5089194;28;20036;-63
2022/01/30 04:26:50;;;;;;;0.97;0.67;;;;;;;-0.27;100.00;95736.44;5090169;28;20047;-63
2022/01/30 04:29:30;;;;;;;0.77;0.30;;;;;;;-0.21;100.00;95738.66;5089306;28;20847;-63
2022/01/30 04:32:17;;;;;;;0.50;0.30;;;;;;;-0.16;100.00;95734.06;5090244;28;20060;-63
2022/01/30 04:35:13;;;;;;;0.23;0.20;;;;;;;-0.09;100.00;95734.53;5088954;28;20063;-63
2022/01/30 04:38:11;;;;;;;1.50;0.60;;;;;;;-0.05;100.00;95730.84;5090252;28;20043;-63
2022/01/30 04:41:25;;;;;;;0.37;0.20;;;;;;;-0.06;100.00;95724.81;5058219;28;20496;-63
2022/01/30 04:54:07;;;;;;;0.23;0.20;;;;;;;0.15;100.00;95715.81;5079806;28;20452;-63
2022/01/30 04:57:18;;;;;;;0.83;0.40;;;;;;;0.24;100.00;95704.88;5093761;28;20043;-63
2022/01/30 05:00:47;;;;;;;0.20;0.20;;;;;;;0.32;100.00;95691.50;5096189;27;20036;-63
2022/01/30 05:03:36;;;;;;;0.50;0.30;;;;;;;0.37;100.00;95695.47;5112971;28;20043;-63
2022/01/30 05:06:29;;;;;;;1.07;0.30;;;;;;;0.43;100.00;95696.84;5114180;28;20549;-63
2022/01/30 05:09:11;;;;;;;0.30;0.25;;;;;;;0.46;100.00;95676.78;5112837;28;20117;-63
2022/01/30 05:11:57;;;;;;;0.70;0.30;;;;;;;0.48;100.00;95687.03;5112634;28;20400;-64
2022/01/30 05:14:44;;;;;;;0.77;0.37;;;;;;;0.55;100.00;95675.41;5113836;28;20047;-63
2022/01/30 05:17:34;;;;;;;0.40;0.30;;;;;;;0.57;100.00;95683.91;5112758;28;20047;-63
2022/01/30 05:20:35;;;;;;;0.77;0.40;;;;;;;0.56;100.00;95675.31;5105004;28;20040;-64
2022/01/30 05:23:16;;;;;;;0.20;0.20;;;;;;;0.57;100.00;95669.19;5113746;28;20051;-63
2022/01/30 05:25:54;;;;;;;0.43;0.40;;;;;;;0.61;100.00;95688.81;5114217;28;20124;-63
2022/01/30 05:28:24;;;;;;;0.93;0.40;;;;;;;0.66;100.00;95667.81;5112599;28;20063;-63
2022/01/30 05:30:55;;;;;;;0.10;0.10;;;;;;;0.68;100.00;95679.72;5113343;28;20404;-63
2022/01/30 05:33:38;;;;;;;0.88;0.32;;;;;;;0.70;100.00;95683.03;5113500;28;20046;-63
2022/01/30 05:36:44;;;;;;;0.30;0.30;;;;;;;0.70;100.00;95680.47;5071051;28;20064;-63
2022/01/30 05:39:45;;;;;;;1.17;0.40;;;;;;;0.63;100.00;95670.56;5031987;28;20048;-63
2022/01/30 05:42:30;;;;;;;0.70;0.43;;;;;;;0.62;100.00;95685.28;5086350;28;20540;-63
2022/01/30 05:45:30;;;;;;;0.50;0.40;;;;;;;0.58;100.00;95682.97;5098811;28;20036;-63
2022/01/30 05:48:25;;;;;;;0.30;0.30;;;;;;;0.55;100.00;95676.25;5113839;28;20028;-63
2022/01/30 05:51:24;;;;;;;1.10;0.57;;;;;;;0.56;100.00;95677.91;5113102;28;20399;-63
2022/01/30 05:54:00;;;;;;;0.20;0.20;;;;;;;0.53;100.00;95678.09;5111897;28;20059;-63
2022/01/30 05:56:34;;;;;;;0.30;0.30;;;;;;;0.51;100.00;95698.06;5113066;28;20055;-63
2022/01/30 05:59:09;;;;;;;0.20;0.20;;;;;;;0.51;100.00;95697.22;5111870;28;20472;-63
2022/01/30 06:01:36;;;;;;;0.50;0.50;;;;;;;0.48;100.00;95680.13;5113438;28;20043;-63
2022/01/30 06:04:20;;;;;;;0.37;0.37;;;;;;;0.42;100.00;95706.34;5112061;28;20593;-63
2022/01/30 06:06:50;;;;;;;2.43;0.40;;;;;;;0.42;100.00;95692.63;5112395;28;20140;-63
2022/01/30 06:09:19;;;;;;;1.27;0.40;;;;;;;0.40;100.00;95705.63;5111810;28;20038;-63
2022/01/30 06:11:52;;;;;;;;;;;;;;;0.48;100.00;95695.66;5112266;28;20117;-62
2022/01/30 06:14:21;;;;;;;0.73;0.33;;;;;;;0.53;100.00;95708.31;5111566;28;19926;-62
2022/01/30 06:16:49;;;;;;;1.93;0.50;;;;;;;0.59;100.00;95711.34;5111822;28;20032;-64
2022/01/30 06:19:39;;;;;;;2.70;0.60;;;;;;;0.66;100.00;95701.44;5083569;28;20055;-63
2022/01/30 06:22:25;;;;;;;1.43;0.63;;;;;;;0.79;100.00;95704.94;5112362;28;20047;-62
2022/01/30 06:25:10;;;;;;;0.80;0.50;;;;;;;0.86;100.00;95696.66;5112358;28;20057;-62
2022/01/30 06:28:08;;;;;;;1.40;0.60;;;;;;;0.90;100.00;95690.38;5023267;28;20526;-62
2022/01/30 06:30:54;;;;;;;1.07;0.53;;;;;;;0.95;100.00;95696.09;5114156;28;20105;-62
2022/01/30 06:33:39;;;;;;;3.97;0.67;;;;;;;1.08;100.00;95681.44;5112503;28;20040;-63
2022/01/30 06:36:26;;;;;;;3.97;0.90;;;;;;;1.14;100.00;95678.47;5111819;28;20046;-63
2022/01/30 06:39:14;;;;;;;3.30;0.80;;;;;;;1.10;100.00;95674.41;5110687;28;20040;-63
2022/01/30 06:41:55;;;;;;;4.40;1.13;;;;;;;1.13;100.00;95683.72;5111975;28;20063;-62
2022/01/30 06:44:44;;;;;;;5.40;1.20;;;;;;;1.17;100.00;95690.38;5114254;28;20040;-62
2022/01/30 06:47:30;;;;;;;1.47;0.93;;;;;;;1.24;100.00;95682.13;5113070;28;20046;-62
2022/01/30 06:50:15;;;;;;;0.87;0.60;;;;;;;1.25;100.00;95678.59;5117034;27;20469;-63
2022/01/30 06:53:18;;;;;;;3.10;1.10;;;;;;;1.30;100.00;95679.13;5132119;27;20122;-63
2022/01/30 06:56:04;;;;;;;2.67;0.90;;;;;;;1.32;100.00;95667.84;5134046;27;20042;-62
2022/01/30 06:59:09;;;;;;;4.83;1.73;;;;;;;1.33;100.00;95671.16;5089112;28;20057;-62
2022/01/30 07:02:10;;;;;;;2.97;0.90;;;;;;;1.28;100.00;95630.94;5056206;28;20393;-61
2022/01/30 07:05:07;;;;;;;3.40;1.03;;;;;;;1.07;100.00;95637.53;5056939;27;20538;-62
2022/01/30 07:07:43;;;;;;;4.43;0.97;;;;;;;1.05;100.00;95670.47;5115481;27;20043;-61
2022/01/30 07:10:10;;;;;;;3.00;1.07;;;;;;;1.23;100.00;95658.91;5133883;27;20511;-63
2022/01/30 07:12:37;;;;;;;2.03;1.63;;;;;;;1.13;100.00;95653.50;5131954;27;20070;-62
2022/01/30 07:15:05;;;;;;;2.83;0.80;;;;;;;1.26;100.00;95659.53;5113850;27;20071;-62
2022/01/30 07:17:33;;;;;;;2.47;1.63;;;;;;;1.66;100.00;95659.50;5131881;27;20051;-62
2022/01/30 07:20:00;;;;;;;3.67;1.00;;;;;;;1.84;100.00;95658.28;5113733;27;20470;-63
2022/01/30 07:22:28;;;;;;;5.57;0.67;;;;;;;1.91;100.00;95651.75;5131626;27;20486;-62
2022/01/30 07:24:58;;;;;;;3.90;1.07;;;;;;;1.77;100.00;95638.88;5113576;27;20130;-62
2022/01/30 07:27:26;;;;;;;1.30;0.87;;;;;;;1.87;100.00;95629.53;5131584;27;20412;-62
2022/01/30 07:29:53;;;;;;;1.87;0.80;;;;;;;1.97;100.00;95630.56;5113729;27;20071;-63
2022/01/30 07:32:21;;;;;;;4.83;1.23;;;;;;;2.20;100.00;95616.84;5131964;27;20062;-63
2022/01/30 07:34:51;;;;;;;1.03;0.93;;;;;;;2.40;99.11;95629.25;5123489;27;20399;-62
2022/01/30 07:37:19;;;;;;;4.00;1.20;;;;;;;2.76;98.38;95632.66;5131574;27;20039;-61
2022/01/30 07:39:46;;;;;;;3.83;1.00;;;;;;;2.92;96.72;95629.81;5131216;27;20523;-61
2022/01/30 07:42:13;;;;;;;3.07;1.20;;;;;;;2.90;95.63;95605.72;5131625;27;20050;-62
2022/01/30 07:44:40;;;;;;;2.83;0.93;;;;;;;2.96;94.24;95611.31;5131431;27;20568;-62
2022/01/30 07:47:07;;;;;;;2.80;0.90;;;;;;;3.05;93.28;95618.41;5131625;27;20121;-59
2022/01/30 07:49:34;;;;;;;1.63;1.30;;;;;;;2.83;93.56;95615.72;5112910;27;20043;-60
2022/01/30 07:52:03;;;;;;;7.60;1.07;;;;;;;2.68;94.36;95637.59;5132631;27;20042;-62
2022/01/30 07:54:32;;;;;;;7.17;1.13;;;;;;;2.97;94.21;95630.31;5113125;28;20070;-63
2022/01/30 07:56:59;;;;;;;1.30;0.70;;;;;;;3.15;93.12;95615.97;5131463;27;20043;-63
2022/01/30 07:59:26;;;;;;;3.83;0.80;;;;;;;3.25;93.90;95611.78;5130189;27;20038;-62
2022/01/30 08:01:53;;;;;;;3.30;0.97;;;;;;;3.00;93.38;95614.50;5112009;27;20043;-64
2022/01/30 08:04:20;;;;;;;4.07;0.90;;;;;;;2.82;94.03;95621.84;5129967;27;20047;-63
2022/01/30 08:06:47;;;;;;;1.30;0.80;;;;;;;2.76;94.63;95603.31;5130177;27;20139;-63
2022/01/30 08:09:15;;;;;;;3.07;1.13;;;;;;;2.67;94.91;95601.34;5131361;27;20107;-62
2022/01/30 08:11:42;;;;;;;5.37;1.73;;;;;;;2.53;95.70;95617.06;5129757;27;20490;-62
2022/01/30 08:14:09;;;;;;;7.30;1.80;;;;;;;2.44;96.12;95604.75;5131127;27;20039;-62
2022/01/30 08:16:37;;;;;;;9.23;1.63;;;;;;;2.52;95.58;95605.03;5130685;28;20049;-62
2022/01/30 08:19:04;;;;;;;6.73;1.20;;;;;;;2.55;96.03;95595.28;5129332;28;20130;-62
2022/01/30 08:21:31;;;;;;;5.60;1.20;;;;;;;2.70;95.75;95586.41;5131255;28;20120;-63
2022/01/30 08:24:24;;;;;;;2.97;1.00;;;;;;;2.77;95.99;95597.16;5129992;28;20039;-63
2022/01/30 08:26:52;;;;;;;6.18;1.60;;;;;;;2.53;96.50;95591.13;5130625;27;20394;-63
2022/01/30 08:29:19;;;;;;;3.73;1.47;;;;;;;2.23;97.93;95580.31;5135482;27;20042;-65
2022/01/30 08:31:46;;;;;;;8.30;1.43;;;;;;;2.39;97.92;95576.53;5134134;27;20043;-65
2022/01/30 08:34:13;;;;;;;6.77;1.57;;;;;;;2.83;95.79;95583.75;5131586;27;20707;-64
2022/01/30 08:36:40;;;;;;;6.03;1.50;;;;;;;2.68;94.94;95562.31;5133908;27;20507;-62
2022/01/30 08:39:07;;;;;;;5.70;1.70;;;;;;;3.53;93.55;95552.47;5133664;27;20747;-63
2022/01/30 08:41:35;;;;;;;4.03;1.20;;;;;;;4.27;90.75;95583.09;5133979;27;20035;-63
2022/01/30 08:44:02;;;;;;;2.20;0.97;;;;;;;4.36;87.62;95558.97;5133656;27;20126;-63
2022/01/30 08:46:29;;;;;;;4.70;1.13;;;;;;;3.65;89.13;95545.50;5135639;27;20436;-63
2022/01/30 08:48:56;;;;;;;4.43;1.10;;;;;;;3.42;90.48;95570.59;5134681;27;20483;-63
2022/01/30 08:51:23;;;;;;;4.73;1.63;;;;;;;3.89;90.26;95572.22;5115342;27;20116;-64
2022/01/30 08:53:50;;;;;;;4.53;1.33;;;;;;;3.31;90.37;95567.16;5133673;27;20065;-64
2022/01/30 08:56:18;;;;;;;5.70;1.07;;;;;;;3.37;91.38;95569.28;5133506;27;20042;-63
2022/01/30 08:58:47;;;;;;;6.27;1.30;;;;;;;3.89;90.10;95567.03;5133470;27;20058;-63
2022/01/30 09:01:14;;;;;;;5.90;1.73;;;;;;;4.20;88.53;95561.13;5113703;27;20103;-62
2022/01/30 09:03:41;;;;;;;5.90;1.60;;;;;;;4.16;87.24;95536.28;5133484;27;20078;-62
2022/01/30 09:06:08;;;;;;;5.30;1.40;;;;;;;4.17;86.21;95564.78;5115770;27;20047;-63
2022/01/30 09:08:35;;;;;;;6.53;1.13;;;;;;;4.33;85.78;95546.19;5115761;27;20100;-64
2022/01/30 09:11:02;;;;;;;6.07;1.30;;;;;;;4.55;84.61;95554.78;5132859;27;20043;-62
2022/01/30 09:13:29;;;;;;;2.17;1.27;;;;;;;4.77;84.09;95522.63;5133304;27;20047;-61
2022/01/30 09:15:58;;;;;;;3.13;1.13;;;;;;;4.94;82.92;95545.53;5133177;27;20047;-65
2022/01/30 09:18:26;;;;;;;3.80;1.37;;;;;;;5.02;83.14;95543.13;5132880;27;20039;-62
2022/01/30 09:20:54;;;;;;;6.73;2.03;;;;;;;4.72;82.25;95546.44;5130538;27;20032;-64
2022/01/30 09:23:22;;;;;;;7.17;1.50;;;;;;;4.34;81.83;95553.88;5133139;27;20478;-63
2022/01/30 09:25:49;;;;;;;9.20;1.73;;;;;;;4.65;80.49;95547.91;5133132;27;20039;-63
2022/01/30 09:28:16;;;;;;;6.57;1.73;;;;;;;4.65;79.71;95540.09;5132769;27;20054;-62
2022/01/30 09:30:43;;;;;;;3.67;1.40;;;;;;;5.07;79.45;95534.94;5133087;27;20126;-64
2022/01/30 09:33:12;;;;;;;5.53;2.13;;;;;;;4.94;79.61;95529.91;5134079;27;20064;-63
2022/01/30 09:35:39;;;;;;;3.53;1.07;;;;;;;4.82;77.07;95542.13;5135533;27;20047;-62
2022/01/30 09:38:06;;;;;;;5.17;1.47;;;;;;;4.77;75.55;95548.66;5133179;27;20043;-62
2022/01/30 09:40:33;;;;;;;4.33;1.43;;;;;;;4.47;76.38;95551.97;5133445;27;20092;-62
2022/01/30 09:43:00;;;;;;;6.23;1.50;;;;;;;4.03;75.71;95541.63;5133800;27;20487;-61
2022/01/30 09:45:28;;;;;;;5.80;2.13;;;;;;;3.90;76.35;95540.09;5133724;27;20035;-63
2022/01/30 09:47:57;;;;;;;5.17;1.23;;;;;;;3.93;76.15;95545.03;5134026;27;20058;-63
2022/01/30 09:50:27;;;;;;;8.97;1.57;;;;;;;3.74;76.08;95529.19;5134871;27;20047;-62
2022/01/30 09:52:54;;;;;;;4.73;1.00;;;;;;;3.58;76.65;95523.53;5135417;27;20055;-63
2022/01/30 09:55:22;;;;;;;5.77;1.73;;;;;;;3.54;76.63;95511.72;5135172;27;20077;-62
2022/01/30 09:57:49;;;;;;;3.33;1.23;;;;;;;3.56;77.05;95500.25;5115073;27;20038;-61
2022/01/30 10:00:17;;;;;;;2.50;1.20;;;;;;;3.52;76.36;95480.63;5115958;27;20046;-62
2022/01/30 10:02:45;;;;;;;1.90;1.20;;;;;;;3.55;75.71;95496.00;5115717;27;20131;-62
2022/01/30 10:05:14;;;;;;;8.87;1.50;;;;;;;4.15;76.14;95500.78;5133771;27;20070;-62
2022/01/30 10:07:45;;;;;;;3.77;2.20;;;;;;;4.98;74.11;95494.84;5133450;27;20050;-63
2022/01/30 10:10:17;;;;;;;5.80;1.57;;;;;;;4.40;74.27;95490.09;5133357;27;20047;-62
2022/01/30 10:13:02;;;;;;;5.60;1.10;;;;;;;4.32;74.79;95495.09;5133483;27;20043;-60
2022/01/30 10:15:30;;;;;;;4.73;1.40;;;;;;;4.20;75.82;95496.06;5133201;27;20122;-61
2022/01/30 10:17:57;;;;;;;3.97;1.10;;;;;;;4.22;75.74;95487.19;5133220;27;20092;-64
2022/01/30 10:20:26;;;;;;;15.53;4.33;;;;;;;4.17;75.92;95501.50;5133028;27;20131;-64
2022/01/30 10:22:56;;;;;;;4.67;1.40;;;;;;;4.52;77.45;95502.94;5133119;27;20047;-63
2022/01/30 10:25:25;;;;;;;5.23;1.37;;;;;;;4.30;75.24;95494.38;5133946;27;20444;-63
2022/01/30 10:28:06;;;;;;;3.23;1.37;;;;;;;4.27;76.63;95503.25;5133629;27;20058;-63
2022/01/30 10:30:42;;;;;;;6.37;2.10;;;;;;;3.26;78.74;95512.09;5132285;27;20035;-62
2022/01/30 10:33:10;;;;;;;33.80;7.97;;;;;;;2.68;84.00;95514.75;5113520;27;20046;-63
2022/01/30 10:35:51;;;;;;;5.73;1.70;;;;;;;2.53;90.55;95516.72;5132014;27;20035;-63
2022/01/30 10:38:22;;;;;;;3.63;1.00;;;;;;;2.68;93.36;95517.34;5131798;27;20047;-63
2022/01/30 10:40:58;;;;;;;7.97;1.70;;;;;;;3.28;93.05;95497.25;5133981;27;20051;-63
2022/01/30 10:43:49;;;;;;;8.50;1.77;;;;;;;3.52;91.68;95516.19;5130316;27;20034;-62
2022/01/30 10:46:21;;;;;;;6.27;1.47;;;;;;;3.54;92.48;95512.53;5114327;27;20031;-63
2022/01/30 10:48:56;;;;;;;4.50;1.27;;;;;;;3.76;93.81;95520.31;5129957;27;20407;-64
2022/01/30 10:51:24;;;;;;;9.17;1.60;;;;;;;3.76;92.02;95502.13;5132042;27;20035;-67
2022/01/30 10:53:53;;;;;;;5.93;1.80;;;;;;;3.73;91.02;95501.56;5132567;27;20035;-65
2022/01/30 10:56:24;;;;;;;7.00;2.40;;;;;;;4.09;91.03;95498.69;5132248;27;20035;-65
2022/01/30 10:59:12;;;;;;;8.87;2.50;;;;;;;4.27;89.55;95479.03;5132470;27;20495;-65
2022/01/30 11:01:41;;;;;;;5.63;1.83;;;;;;;4.06;87.82;95478.13;5132187;27;20035;-65
2022/01/30 11:04:21;;;;;;;4.50;1.83;;;;;;;3.74;87.65;95490.19;5132487;27;20050;-65
2022/01/30 11:06:48;;;;;;;6.80;1.80;;;;;;;3.93;86.37;95478.25;5133783;27;20127;-65
2022/01/30 11:09:22;;;;;;;4.60;1.10;;;;;;;4.42;85.87;95467.38;5133756;27;20427;-65
2022/01/30 11:11:54;;;;;;;10.47;2.30;;;;;;;4.16;84.14;95447.84;5132300;27;20216;-63
2022/01/30 11:14:23;;;;;;;6.67;1.93;;;;;;;4.21;83.53;95446.50;5130962;27;20577;-63
2022/01/30 11:17:02;;;;;;;5.73;1.17;;;;;;;4.19;82.28;95438.00;5113478;27;20051;-63
2022/01/30 11:19:30;;;;;;;1.97;1.30;;;;;;;4.07;79.50;95419.94;5132873;27;20471;-63
2022/01/30 11:22:00;;;;;;;2.10;0.93;;;;;;;4.13;78.95;95430.66;5132127;27;20088;-63
2022/01/30 11:24:29;;;;;;;3.77;1.20;;;;;;;4.41;79.07;95409.28;5131847;27;20130;-63
2022/01/30 11:26:57;;;;;;;6.53;1.70;;;;;;;4.40;78.15;95407.66;5132006;27;20063;-64
2022/01/30 11:29:24;;;;;;;6.47;2.73;;;;;;;4.25;76.94;95415.84;5131226;27;20081;-62
2022/01/30 11:31:51;;;;;;;4.27;1.77;;;;;;;4.25;76.18;95402.84;5131392;27;20047;-64
2022/01/30 11:34:19;;;;;;;6.70;1.63;;;;;;;4.15;77.51;95422.75;5131511;27;20039;-63
2022/01/30 11:36:48;;;;;;;4.60;1.30;;;;;;;4.82;77.83;95411.13;5131542;27;20071;-63
2022/01/30 11:39:18;;;;;;;6.67;1.37;;;;;;;4.80;77.12;95402.59;5131706;27;20088;-63
2022/01/30 11:42:08;;;;;;;5.67;1.03;;;;;;;4.24;75.60;95396.81;5131819;27;20047;-63
2022/01/30 11:44:36;;;;;;;2.67;1.10;;;;;;;3.83;77.26;95399.31;5131818;27;20039;-64
2022/01/30 11:47:19;;;;;;;7.23;2.17;;;;;;;3.84;78.16;95420.94;5131693;27;20236;-63
2022/01/30 11:49:52;;;;;;;4.10;1.63;;;;;;;3.90;77.30;95373.66;5113344;28;20093;-63
2022/01/30 11:52:21;;;;;;;3.40;0.83;;;;;;;3.84;76.76;95415.75;5132201;27;20043;-64
2022/01/30 11:54:49;;;;;;;5.50;1.23;;;;;;;3.50;79.25;95429.69;5132200;27;20046;-64
2022/01/30 11:57:47;;;;;;;4.73;1.07;;;;;;;2.82;79.72;95402.97;5131614;27;20036;-63
2022/01/30 12:00:36;;;;;;;8.20;1.57;;;;;;;2.74;83.24;95402.72;5113187;27;20074;-63
2022/01/30 12:03:23;;;;;;;5.47;1.43;;;;;;;2.61;84.08;95378.63;5130687;27;20481;-62
2022/01/30 12:05:50;;;;;;;7.87;1.67;;;;;;;2.73;85.19;95382.91;5113286;27;20031;-62
2022/01/30 12:08:45;;;;;;;6.37;1.70;;;;;;;3.08;85.19;95391.41;5131377;27;20130;-62
2022/01/30 12:11:49;;;;;;;2.47;1.27;;;;;;;3.17;84.74;95377.75;5083791;27;20134;-63
2022/01/30 12:14:54;;;;;;;2.65;1.58;;;;;;;2.88;83.02;95379.94;5113423;28;20106;-63
2022/01/30 12:17:58;;;;;;;2.67;0.93;;;;;;;2.35;85.84;95408.25;5131268;28;20047;-63
2022/01/30 12:20:31;;;;;;;4.72;1.33;;;;;;;1.88;92.01;95403.13;5131213;28;20070;-62
2022/01/30 12:22:59;;;;;;;5.10;0.98;;;;;;;1.68;96.24;95398.50;5131013;28;20449;-62
2022/01/30 12:25:34;;;;;;;8.17;1.70;;;;;;;1.63;100.00;95390.25;5131179;28;20114;-62
2022/01/30 12:28:07;;;;;;;3.10;0.70;;;;;;;1.53;100.00;95386.63;5131078;28;20070;-63
2022/01/30 12:30:37;;;;;;;1.88;0.90;;;;;;;1.44;100.00;95397.66;5131122;28;20117;-63
2022/01/30 12:33:35;;;;;;;2.63;0.93;;;;;;;1.50;100.00;95399.81;5130649;28;20552;-64
2022/01/30 12:36:11;;;;;;;6.40;1.10;;;;;;;1.40;100.00;95378.91;5129504;28;20043;-63
2022/01/30 12:38:38;;;;;;;2.73;1.13;;;;;;;1.40;100.00;95385.88;5132184;28;20059;-64